Terminal Aerodrome Forecast
Issued by NWS

Home | Current Version | Previous Version | Text Only | Print | Product List | Glossary On
Versions: 1 2 3 4 5 6 7 8 9 10 11 12 13 14 15 16 17 18 19
000
FTUS46 KOTX 231139
TAFCOE
TAF
KCOE 231139Z 2312/2412 16006KT P6SM SCT100 OVC150
     FM231600 19006KT P6SM SCT040 BKN100 BKN200
     FM232200 23010G16KT P6SM SCT050 BKN080
     FM240100 20008KT P6SM SCT060 BKN080 OVC120 PROB30 2402/2408
      -SHRA=

USA.gov is the U.S. government's official web portal to all federal, state and local government web resources and services.